Time;durP1;ratioP1;P1;durP2;ratioP2;P2;SDS_P1;SDS_P2;PMS_P1;PMS_P2;Temp;Humidity;BMP_temperature;BMP_pressure;BME280_temperature;BME280_humidity;BME280_pressure;Samples;Min_cycle;Max_cycle;Signal;HPM_P1;HPM_P2
2021/12/31 00:01:57;;;;;;;1.73;0.93;;;13.00;82.80;;;11.38;98.91;96693.41;4906468;29;20772;-68
2021/12/31 00:04:23;;;;;;;2.80;0.93;;;13.00;82.80;;;11.38;98.99;96695.22;4928025;29;20036;-67
2021/12/31 00:06:49;;;;;;;1.48;0.88;;;13.00;82.80;;;11.35;98.35;96691.13;4906477;29;20043;-68
2021/12/31 00:09:15;;;;;;;1.92;1.02;;;12.90;82.70;;;11.36;98.64;96692.75;4908938;29;20062;-67
2021/12/31 00:11:41;;;;;;;5.45;1.00;;;12.90;82.90;;;11.37;99.06;96694.41;4927478;29;20047;-67
2021/12/31 00:14:07;;;;;;;2.47;0.75;;;13.00;82.70;;;11.36;98.75;96687.50;4891904;29;20044;-67
2021/12/31 00:16:33;;;;;;;1.08;0.80;;;12.90;82.90;;;11.35;98.50;96693.75;4905025;28;20927;-67
2021/12/31 00:18:58;;;;;;;0.90;0.80;;;12.90;83.00;;;11.35;98.72;96697.22;4909860;29;20551;-67
2021/12/31 00:21:24;;;;;;;1.55;0.90;;;12.90;83.00;;;11.35;99.05;96704.31;4926777;29;20036;-67
2021/12/31 00:23:50;;;;;;;1.45;0.80;;;13.00;83.00;;;11.34;99.12;96698.22;4926911;29;20087;-68
2021/12/31 00:26:16;;;;;;;1.30;0.70;;;13.00;83.00;;;11.34;99.07;96697.41;4923267;29;20040;-67
2021/12/31 00:28:41;;;;;;;1.17;0.77;;;12.90;83.10;;;11.34;99.15;96689.50;4908539;28;20054;-67
2021/12/31 00:31:07;;;;;;;1.00;0.60;;;12.90;83.10;;;11.32;99.01;96686.22;4928267;29;20162;-67
2021/12/31 00:33:33;;;;;;;0.88;0.77;;;12.80;83.30;;;11.32;99.34;96691.50;4930777;29;20404;-67
2021/12/31 00:35:58;;;;;;;1.52;0.82;;;12.90;83.40;;;11.32;99.19;96702.03;4898682;29;20043;-68
2021/12/31 00:38:24;;;;;;;1.42;0.80;;;12.90;83.30;;;11.31;99.22;96701.19;4932025;29;20511;-68
2021/12/31 00:40:50;;;;;;;1.27;0.70;;;12.80;83.50;;;11.28;99.26;96695.44;4912241;29;20060;-67
2021/12/31 00:43:16;;;;;;;1.15;0.73;;;12.80;83.60;;;11.27;98.99;96699.09;4930673;29;20055;-67
2021/12/31 00:45:43;;;;;;;1.20;0.80;;;12.80;83.80;;;11.26;99.48;96705.34;4930078;29;20047;-67
2021/12/31 00:48:11;;;;;;;1.25;0.75;;;12.80;83.80;;;11.23;99.46;96713.63;4899165;29;20044;-67
2021/12/31 00:50:37;;;;;;;1.15;0.70;;;12.80;84.00;;;11.21;100.00;96713.78;4927934;29;20050;-67
2021/12/31 00:53:03;;;;;;;0.80;0.65;;;12.70;84.20;;;11.21;99.92;96713.78;4914868;29;20032;-67
2021/12/31 00:55:29;;;;;;;1.25;0.75;;;12.70;84.20;;;11.19;100.00;96697.34;4928413;29;20157;-67
2021/12/31 00:57:55;;;;;;;1.10;0.70;;;12.70;84.30;;;11.19;100.00;96707.88;4913774;29;20131;-67
2021/12/31 01:00:20;;;;;;;2.72;0.80;;;12.70;84.40;;;11.18;100.00;96700.97;4914942;29;20444;-67
2021/12/31 01:02:46;;;;;;;1.98;1.00;;;12.70;84.30;;;11.18;100.00;96700.16;4947470;23;20059;-67
2021/12/31 01:05:13;;;;;;;2.28;0.90;;;12.80;84.40;;;11.17;100.00;96696.72;4929043;28;20074;-68
2021/12/31 01:07:40;;;;;;;1.15;0.82;;;12.70;84.40;;;11.17;100.00;96704.63;4946200;28;20042;-68
2021/12/31 01:10:07;;;;;;;1.35;0.88;;;12.70;84.40;;;11.19;100.00;96707.06;4949993;28;20035;-68
2021/12/31 01:12:33;;;;;;;1.70;0.90;;;12.70;84.30;;;11.19;100.00;96707.06;4948773;28;20050;-68
2021/12/31 01:15:05;;;;;;;1.10;0.80;;;12.80;84.20;;;11.19;100.00;96707.06;4918049;29;20566;-67
2021/12/31 01:20:22;;;;;;;0.77;0.65;;;12.80;84.00;;;11.18;100.00;96710.69;4940804;28;20045;-67
2021/12/31 01:22:48;;;;;;;1.02;0.80;;;12.80;84.10;;;11.17;100.00;96715.16;4952761;28;20074;-67
2021/12/31 01:25:14;;;;;;;1.85;1.02;;;12.80;84.10;;;11.18;100.00;96721.22;4952986;28;20023;-68
2021/12/31 01:27:40;;;;;;;1.70;0.93;;;12.80;84.00;;;11.18;100.00;96715.97;4938350;28;20046;-66
2021/12/31 01:30:08;;;;;;;2.13;0.90;;;12.80;84.10;;;11.16;100.00;96718.78;4929082;29;20351;-67
2021/12/31 01:32:33;;;;;;;2.08;1.00;;;12.80;84.20;;;11.15;100.00;96722.41;4963732;28;20089;-67
2021/12/31 01:34:59;;;;;;;1.92;1.02;;;12.70;84.20;;;11.14;100.00;96727.84;4949406;28;20035;-67
2021/12/31 01:37:26;;;;;;;1.35;0.90;;;12.70;84.40;;;11.15;100.00;96721.59;4941064;28;20031;-67
2021/12/31 01:39:52;;;;;;;1.30;0.80;;;12.70;84.20;;;11.12;100.00;96729.84;4922856;28;20039;-66
2021/12/31 01:42:23;;;;;;;2.17;0.93;;;12.60;84.60;;;11.10;100.00;96729.22;4951708;29;20034;-66
2021/12/31 01:44:57;;;;;;;1.65;0.90;;;12.60;84.80;;;11.09;100.00;96727.53;4940821;28;20034;-67
2021/12/31 01:47:46;;;;;;;1.08;0.70;;;12.70;84.70;;;11.10;100.00;96723.94;4930603;28;20039;-67
2021/12/31 01:50:12;;;;;;;1.75;0.90;;;12.60;84.90;;;11.09;100.00;96727.53;4951572;28;20031;-67
2021/12/31 01:52:40;;;;;;;1.10;0.80;;;12.60;84.70;;;11.10;100.00;96729.22;4952507;28;20047;-67
2021/12/31 01:55:10;;;;;;;1.67;0.90;;;12.70;84.80;;;11.09;100.00;96733.66;4938992;28;20539;-67
2021/12/31 01:57:37;;;;;;;2.58;0.80;;;12.60;84.70;;;11.09;100.00;96728.38;4960033;28;20522;-66
2021/12/31 02:00:04;;;;;;;3.00;1.00;;;12.60;84.70;;;11.10;100.00;96730.03;4928733;28;20503;-66
2021/12/31 02:02:29;;;;;;;1.58;0.90;;;12.70;84.60;;;11.10;100.00;96724.75;4946119;28;20499;-66
2021/12/31 02:04:55;;;;;;;2.15;0.80;;;12.60;84.80;;;11.12;100.00;96727.22;4939726;29;20062;-66
2021/12/31 02:07:21;;;;;;;1.58;0.77;;;12.70;84.50;;;11.12;100.00;96727.22;4946774;29;20050;-66
2021/12/31 02:09:54;;;;;;;1.50;0.80;;;12.70;84.70;;;11.11;100.00;96726.41;4943953;29;20077;-68
2021/12/31 02:12:22;;;;;;;1.02;0.60;;;12.70;84.80;;;11.10;100.00;96727.41;4966808;28;20475;-67
2021/12/31 02:14:51;;;;;;;1.40;0.80;;;12.70;84.70;;;11.13;100.00;96736.75;4950946;28;20047;-66
2021/12/31 02:17:18;;;;;;;1.67;0.80;;;12.70;84.70;;;11.12;100.00;96730.66;4954253;28;20122;-67
2021/12/31 02:19:56;;;;;;;1.67;0.80;;;12.70;84.60;;;11.15;100.00;96726.84;4944199;28;20051;-66
2021/12/31 02:22:27;;;;;;;1.20;0.80;;;12.70;84.60;;;11.12;100.00;96735.13;4965429;28;20072;-66
2021/12/31 02:24:55;;;;;;;1.42;0.90;;;12.70;84.60;;;11.13;100.00;96729.66;4966894;28;20089;-66
2021/12/31 02:27:21;;;;;;;1.92;0.82;;;12.70;84.50;;;11.13;100.00;96734.94;4951158;28;20142;-66
2021/12/31 02:29:46;;;;;;;1.42;0.93;;;12.70;84.60;;;11.14;100.00;96735.75;4953276;28;20040;-66
2021/12/31 02:32:12;;;;;;;1.05;0.70;;;12.70;84.50;;;11.14;100.00;96735.75;4950604;28;20431;-67
2021/12/31 02:34:38;;;;;;;1.25;0.80;;;12.80;84.60;;;11.14;100.00;96730.47;4970315;28;20042;-66
2021/12/31 02:37:04;;;;;;;2.25;1.17;;;12.80;84.40;;;11.13;100.00;96734.13;4948915;28;20039;-66
2021/12/31 02:39:30;;;;;;;1.55;0.88;;;12.80;84.60;;;11.12;100.00;96728.03;4949289;28;20034;-66
2021/12/31 02:41:59;;;;;;;0.90;0.80;;;12.70;84.60;;;11.12;100.00;96727.22;4950722;28;20039;-65
2021/12/31 02:44:25;;;;;;;1.58;0.90;;;12.80;84.50;;;11.14;100.00;96725.22;4981634;28;20066;-66
2021/12/31 02:46:51;;;;;;;1.10;0.80;;;12.80;84.50;;;11.12;100.00;96721.94;4948806;28;20415;-66
2021/12/31 02:49:22;;;;;;;1.50;0.70;;;12.70;84.50;;;11.11;100.00;96717.69;4936470;28;20028;-66
2021/12/31 02:51:48;;;;;;;2.17;0.73;;;12.70;84.70;;;11.11;100.00;96715.88;4939065;28;20047;-67
2021/12/31 02:54:14;;;;;;;1.20;0.70;;;12.70;84.70;;;11.11;100.00;96720.31;4951124;29;20035;-66
2021/12/31 02:56:40;;;;;;;1.70;0.70;;;12.70;84.70;;;11.10;100.00;96723.94;4942291;28;20038;-66
2021/12/31 02:59:06;;;;;;;1.33;0.80;;;12.70;84.60;;;11.09;100.00;96724.91;4967131;28;20032;-66
2021/12/31 03:01:32;;;;;;;0.70;0.70;;;12.60;84.80;;;11.09;100.00;96717.00;4952953;28;20150;-66
2021/12/31 03:03:58;;;;;;;4.43;0.70;;;12.60;84.90;;;11.09;100.00;96717.00;4946655;28;20062;-66
2021/12/31 03:06:24;;;;;;;0.90;0.68;;;12.70;84.70;;;11.09;100.00;96707.31;4925495;28;20049;-66
2021/12/31 03:08:49;;;;;;;0.98;0.70;;;12.70;84.60;;;11.10;100.00;96714.22;4961504;28;20070;-67
2021/12/31 03:11:21;;;;;;;1.77;0.70;;;12.70;84.50;;;11.10;100.00;96716.03;4943939;29;20031;-66
2021/12/31 03:13:51;;;;;;;2.00;0.70;;;12.70;84.40;;;11.09;100.00;96714.38;4921171;28;20031;-66
2021/12/31 03:16:20;;;;;;;0.98;0.80;;;12.70;84.50;;;11.08;100.00;96715.38;4945257;28;20073;-66
2021/12/31 03:18:49;;;;;;;2.28;0.80;;;12.70;84.50;;;11.07;100.00;96708.47;4939064;28;20054;-66
2021/12/31 03:21:21;;;;;;;1.42;0.70;;;12.70;84.50;;;11.06;100.00;96712.91;4949584;29;20043;-67
2021/12/31 03:23:52;;;;;;;1.55;0.70;;;12.70;84.50;;;11.03;100.00;96703.56;4943632;28;20112;-66
2021/12/31 03:26:19;;;;;;;1.60;0.60;;;12.70;84.50;;;11.04;100.00;96705.19;4935157;28;20451;-67
2021/12/31 03:28:45;;;;;;;1.15;0.70;;;12.70;84.40;;;11.03;100.00;96708.00;4949935;28;20126;-66
2021/12/31 03:31:11;;;;;;;1.15;0.73;;;12.60;84.50;;;11.03;100.00;96703.56;4949929;28;20040;-65
2021/12/31 03:33:37;;;;;;;1.77;0.68;;;12.60;84.40;;;11.02;100.00;96698.47;4964193;28;20039;-66
2021/12/31 03:36:03;;;;;;;1.10;0.73;;;12.70;84.50;;;11.02;100.00;96695.84;4941368;28;20391;-66
2021/12/31 03:38:29;;;;;;;2.10;0.77;;;12.70;84.30;;;11.01;100.00;96688.94;4950474;28;20031;-65
2021/12/31 03:40:54;;;;;;;1.83;0.60;;;12.70;84.30;;;11.00;100.00;96687.31;4919295;29;20063;-66
2021/12/31 03:43:20;;;;;;;1.45;0.70;;;12.70;84.30;;;10.99;100.00;96683.84;4935477;28;20042;-66
2021/12/31 03:45:51;;;;;;;1.35;0.88;;;12.70;84.30;;;10.98;100.00;96694.56;4937661;29;20122;-66
2021/12/31 03:48:20;;;;;;;1.40;0.82;;;12.70;84.30;;;10.97;100.00;96688.47;4938887;28;20034;-65
2021/12/31 03:50:46;;;;;;;1.10;0.80;;;12.70;84.20;;;10.96;100.00;96697.38;4937371;28;20035;-68
2021/12/31 03:53:14;;;;;;;1.52;0.80;;;12.60;84.30;;;10.94;100.00;96685.38;4922311;29;20054;-66
2021/12/31 03:55:40;;;;;;;1.33;0.80;;;12.60;84.50;;;10.91;100.00;96689.19;4959680;28;20098;-66
2021/12/31 03:58:06;;;;;;;1.20;0.70;;;12.60;84.50;;;10.90;100.00;96690.19;4934915;28;20050;-66
2021/12/31 04:00:32;;;;;;;2.00;1.10;;;12.60;84.80;;;10.89;100.00;96690.38;4945255;28;20387;-69
2021/12/31 04:03:04;;;;;;;1.45;0.90;;;12.60;84.70;;;10.87;100.00;96687.91;4928335;28;20035;-66
2021/12/31 04:05:30;;;;;;;1.27;0.75;;;12.50;84.70;;;10.83;100.00;96678.72;4929625;28;20098;-67
2021/12/31 04:07:56;;;;;;;1.52;1.00;;;12.40;84.80;;;10.81;100.00;96677.25;4950556;28;20035;-66
2021/12/31 04:10:25;;;;;;;1.23;0.77;;;12.40;84.80;;;10.79;100.00;96682.69;4967750;28;20050;-67
2021/12/31 04:12:51;;;;;;;1.27;0.80;;;12.40;84.80;;;10.76;100.00;96688.31;4933814;28;20035;-66
2021/12/31 04:15:18;;;;;;;2.25;0.95;;;12.30;84.90;;;10.72;100.00;96679.13;4951660;28;20407;-66
2021/12/31 04:17:43;;;;;;;2.45;0.85;;;12.30;85.00;;;10.69;100.00;96668.97;4952656;28;20033;-67
2021/12/31 04:20:18;;;;;;;0.90;0.63;;;12.20;85.00;;;10.67;100.00;96670.97;4962096;28;20511;-68
2021/12/31 04:22:51;;;;;;;0.70;0.60;;;12.20;85.00;;;10.64;100.00;96672.13;4920033;28;20144;-67
2021/12/31 04:25:17;;;;;;;1.83;0.60;;;12.20;84.90;;;10.64;100.00;96671.31;4947500;28;20030;-66
2021/12/31 04:27:43;;;;;;;2.10;0.80;;;12.20;85.00;;;10.61;100.00;96663.75;4944926;28;20027;-66
2021/12/31 04:30:09;;;;;;;1.27;0.60;;;12.10;85.00;;;10.58;100.00;96666.72;4949995;28;20035;-67
2021/12/31 04:32:35;;;;;;;1.13;0.60;;;12.10;85.00;;;10.55;100.00;96661.81;4933241;28;20128;-65
2021/12/31 04:35:01;;;;;;;0.75;0.60;;;12.10;85.10;;;10.53;100.00;96663.81;4930278;29;20025;-67
2021/12/31 04:37:27;;;;;;;1.17;0.70;;;12.10;85.20;;;10.49;100.00;96658.09;4936580;28;20049;-67
2021/12/31 04:39:53;;;;;;;0.73;0.50;;;12.00;85.20;;;10.49;100.00;96652.00;4933546;29;20126;-67
2021/12/31 04:42:22;;;;;;;2.30;0.88;;;12.00;85.20;;;10.48;100.00;96660.88;4958989;28;20086;-66
2021/12/31 04:44:50;;;;;;;2.72;0.80;;;12.00;85.10;;;10.45;100.00;96651.53;4959701;28;20043;-67
2021/12/31 04:47:16;;;;;;;1.00;0.63;;;12.00;85.30;;;10.45;100.00;96655.97;4965185;28;20043;-67
2021/12/31 04:49:42;;;;;;;1.67;0.80;;;11.90;85.30;;;10.43;100.00;96664.88;4941295;28;20087;-66
2021/12/31 04:52:08;;;;;;;1.05;0.60;;;11.90;85.30;;;10.40;100.00;96665.19;4922423;28;20035;-66
2021/12/31 04:54:33;;;;;;;3.00;2.22;;;11.90;85.30;;;10.38;100.00;96669.81;4964271;28;20043;-66
2021/12/31 04:57:03;;;;;;;5.97;2.08;;;11.90;85.30;;;10.38;100.00;96667.19;4945662;28;20057;-68
2021/12/31 04:59:29;;;;;;;11.27;8.43;;;12.00;85.20;;;10.39;100.00;96663.56;4936162;28;20062;-67
2021/12/31 05:01:55;;;;;;;4.55;2.35;;;12.10;85.00;;;10.39;100.00;96674.06;4942673;28;20047;-67
2021/12/31 05:04:21;;;;;;;1.35;0.90;;;12.10;84.80;;;10.37;100.00;96668.16;4966606;28;20400;-67
2021/12/31 05:06:49;;;;;;;0.75;0.60;;;11.90;85.00;;;10.38;100.00;96671.63;4940748;28;20203;-67
2021/12/31 05:09:15;;;;;;;2.40;1.00;;;12.00;85.10;;;10.36;100.00;96663.91;4953604;28;20032;-67
2021/12/31 05:11:42;;;;;;;2.50;1.40;;;11.90;85.10;;;10.37;100.00;96665.53;4937213;29;20110;-67
2021/12/31 05:14:08;;;;;;;3.67;1.80;;;12.00;85.00;;;10.37;100.00;96664.72;4937143;29;20106;-66
2021/12/31 05:16:35;;;;;;;2.63;1.38;;;12.00;85.00;;;10.35;100.00;96667.53;4951594;28;20043;-65
2021/12/31 05:19:03;;;;;;;1.25;0.90;;;11.90;85.10;;;10.35;100.00;96672.78;4953845;28;20179;-66
2021/12/31 05:21:30;;;;;;;8.05;7.18;;;11.90;85.10;;;10.37;100.00;96676.06;4944204;28;20042;-66
2021/12/31 05:23:56;;;;;;;2.30;1.75;;;12.10;85.30;;;10.38;100.00;96671.63;4952036;28;20511;-66
2021/12/31 05:26:22;;;;;;;1.50;1.00;;;12.00;85.00;;;10.37;100.00;96670.78;4954643;28;20468;-67
2021/12/31 05:28:48;;;;;;;2.22;0.80;;;12.00;85.00;;;10.36;100.00;96673.59;4959260;28;20101;-66
2021/12/31 05:31:14;;;;;;;1.95;1.10;;;12.00;84.80;;;10.35;100.00;96667.53;4949887;28;20040;-66
2021/12/31 05:33:39;;;;;;;1.85;0.88;;;12.00;84.70;;;10.32;100.00;96670.50;4938405;28;20441;-66
2021/12/31 05:36:08;;;;;;;1.90;0.90;;;12.00;84.60;;;10.29;100.00;96662.97;4926623;28;20035;-65
2021/12/31 05:38:34;;;;;;;1.83;0.82;;;11.90;84.50;;;10.24;100.00;96659.22;4947068;28;20125;-66
2021/12/31 05:41:02;;;;;;;0.98;0.70;;;11.90;84.20;;;10.19;100.00;96657.09;4969731;28;20039;-65
2021/12/31 05:43:28;;;;;;;3.67;1.00;;;11.80;84.10;;;10.13;100.00;96652.50;4928488;28;20038;-66
2021/12/31 05:45:54;;;;;;;2.35;0.88;;;11.80;83.90;;;10.08;100.00;96660.91;4936902;28;20518;-66
2021/12/31 05:48:20;;;;;;;1.00;0.80;;;11.70;84.10;;;10.04;100.00;96653.53;4951317;28;20054;-67
2021/12/31 05:50:46;;;;;;;2.35;1.05;;;11.60;84.00;;;9.99;100.00;96661.94;4967481;28;20062;-67
2021/12/31 05:53:12;;;;;;;1.63;0.95;;;11.60;84.10;;;9.93;100.00;96661.78;4950786;28;20250;-66
2021/12/31 05:55:38;;;;;;;2.40;1.10;;;11.50;84.10;;;9.89;100.00;96660.50;4948497;28;20539;-66
2021/12/31 05:58:03;;;;;;;1.38;1.02;;;11.50;84.90;;;9.85;100.00;96654.78;4952482;28;20050;-66
2021/12/31 06:00:30;;;;;;;3.67;2.28;;;11.50;84.60;;;9.82;100.00;96655.13;4954834;28;20034;-65
2021/12/31 06:02:57;;;;;;;6.50;4.50;;;11.50;85.40;;;9.80;100.00;96657.09;4928828;28;20039;-66
2021/12/31 06:05:25;;;;;;;7.88;4.80;;;11.40;85.70;;;9.79;100.00;96651.03;4939701;28;20066;-66
2021/12/31 06:07:52;;;;;;;5.72;3.42;;;11.50;85.60;;;9.79;100.00;96660.72;4948807;29;20035;-66
2021/12/31 06:10:18;;;;;;;5.57;3.08;;;11.50;85.60;;;9.82;100.00;96668.25;4951321;28;20027;-65
2021/12/31 06:12:44;;;;;;;3.70;2.65;;;11.50;85.80;;;9.83;100.00;96662.81;4945524;28;20071;-66
2021/12/31 06:15:10;;;;;;;4.78;2.35;;;11.50;85.60;;;9.83;100.00;96664.63;4949032;29;20035;-65
2021/12/31 06:17:37;;;;;;;3.78;2.20;;;11.50;85.60;;;9.87;100.00;96667.75;4950342;28;20035;-66
2021/12/31 06:20:06;;;;;;;4.53;2.28;;;11.60;85.70;;;9.89;100.00;96676.28;4936269;28;20051;-65
2021/12/31 06:22:32;;;;;;;2.65;2.00;;;11.60;85.40;;;9.89;100.00;96671.00;4939548;28;20054;-66
2021/12/31 06:25:04;;;;;;;2.72;1.77;;;11.60;85.30;;;9.89;100.00;96673.63;4937297;28;20043;-68
2021/12/31 06:27:30;;;;;;;4.43;1.67;;;11.60;85.30;;;9.90;100.00;96672.66;4928776;28;20050;-67
2021/12/31 06:29:56;;;;;;;2.58;1.60;;;11.60;84.90;;;9.91;100.00;96676.91;4966443;28;20426;-69
2021/12/31 06:32:22;;;;;;;2.17;1.63;;;11.60;84.90;;;9.92;100.00;96681.19;4959423;28;20049;-69
2021/12/31 06:34:48;;;;;;;1.77;1.17;;;11.70;85.00;;;9.92;100.00;96675.91;4955209;28;20711;-68
2021/12/31 06:37:14;;;;;;;2.22;1.50;;;11.70;85.10;;;9.95;100.00;96680.84;4927942;28;20043;-70
2021/12/31 06:40:04;;;;;;;2.72;1.70;;;11.70;85.10;;;9.94;100.00;96674.75;4944000;28;20533;-73
2021/12/31 06:42:30;;;;;;;1.90;1.40;;;11.70;84.90;;;9.93;100.00;96677.56;4949662;28;20070;-68
2021/12/31 06:44:55;;;;;;;2.30;1.55;;;11.70;84.80;;;9.95;100.00;96678.22;4944549;28;20047;-67
2021/12/31 06:47:21;;;;;;;2.35;1.70;;;11.70;84.60;;;9.94;100.00;96681.81;4954211;28;20067;-67
2021/12/31 06:49:47;;;;;;;2.88;1.98;;;11.70;84.60;;;9.92;100.00;96681.19;4936975;28;20046;-66
2021/12/31 06:52:13;;;;;;;3.40;1.70;;;11.70;84.50;;;9.91;100.00;96680.34;4968012;28;20082;-66
2021/12/31 06:54:39;;;;;;;3.50;1.58;;;11.70;84.60;;;9.90;100.00;96688.41;4934509;28;20625;-66
2021/12/31 06:57:05;;;;;;;2.75;1.85;;;11.60;84.10;;;9.88;100.00;96677.25;4966590;28;20044;-66
2021/12/31 06:59:31;;;;;;;1.95;1.60;;;11.60;84.50;;;9.87;100.00;96678.25;4946313;28;20121;-66
2021/12/31 07:01:57;;;;;;;3.08;2.30;;;11.60;84.10;;;9.83;100.00;96677.78;4929011;28;20046;-66
2021/12/31 07:04:23;;;;;;;31.80;25.92;;;11.60;84.50;;;9.80;100.00;96684.19;4917855;28;20047;-66
2021/12/31 07:06:49;;;;;;;33.83;26.65;;;11.50;85.00;;;9.78;100.00;96680.91;4931977;28;20086;-67
2021/12/31 07:09:15;;;;;;;4.68;3.72;;;11.50;85.40;;;9.74;100.00;96681.44;4949101;28;20035;-66
2021/12/31 07:11:44;;;;;;;5.35;2.95;;;11.40;85.70;;;9.71;100.00;96677.31;4951897;28;20399;-67
2021/12/31 07:14:13;;;;;;;4.38;1.80;;;11.30;85.90;;;9.68;100.00;96676.81;4950794;29;20039;-66
2021/12/31 07:16:39;;;;;;;2.20;1.70;;;11.30;85.90;;;9.63;100.00;96679.97;4950412;28;20062;-66
2021/12/31 07:19:05;;;;;;;2.20;1.55;;;11.20;86.00;;;9.61;100.00;96674.06;4966454;28;20038;-67
2021/12/31 07:21:34;;;;;;;2.10;1.58;;;11.20;85.90;;;9.59;100.00;96670.78;4935781;29;20047;-66
2021/12/31 07:24:00;;;;;;;2.13;1.63;;;11.20;85.70;;;9.57;100.00;96674.56;4934176;29;20043;-68
2021/12/31 07:26:26;;;;;;;2.75;1.92;;;11.20;85.80;;;9.55;100.00;96682.63;4949623;28;20035;-68
2021/12/31 07:28:51;;;;;;;2.70;2.17;;;11.10;85.80;;;9.52;100.00;96681.16;4933755;28;20478;-69
2021/12/31 07:31:18;;;;;;;3.05;2.53;;;11.20;85.70;;;9.50;100.00;96679.66;4950612;29;20036;-69
2021/12/31 07:33:46;;;;;;;3.10;2.03;;;11.10;86.00;;;9.48;100.00;96684.25;4942032;28;20035;-70
2021/12/31 07:36:12;;;;;;;3.03;1.98;;;11.10;86.00;;;9.47;100.00;96666.88;4962700;28;20042;-70
2021/12/31 07:39:04;;;;;;;2.58;1.55;;;11.10;86.00;;;9.46;100.00;96666.06;4954340;28;20126;-72
2021/12/31 07:41:29;;;;;;;2.50;1.50;;;11.10;85.90;;;9.45;100.00;96672.28;4950941;28;20045;-72
2021/12/31 07:43:55;;;;;;;2.80;1.42;;;11.10;85.80;;;9.47;100.00;96680.00;4934020;29;20477;-69
2021/12/31 07:46:21;;;;;;;2.92;1.50;;;11.10;85.40;;;9.43;100.00;96681.31;4933121;29;20534;-71
2021/12/31 07:48:47;;;;;;;3.42;1.67;;;11.10;85.20;;;9.40;100.00;96690.38;4950590;28;20035;-71
2021/12/31 07:51:13;;;;;;;4.40;1.80;;;11.10;84.80;;;9.40;100.00;96686.91;4934597;29;20437;-69
2021/12/31 07:53:39;;;;;;;2.30;1.80;;;11.10;84.70;;;9.38;100.00;96692.34;4948825;28;20070;-71
2021/12/31 07:56:05;;;;;;;2.33;1.58;;;11.10;84.70;;;9.37;100.00;96695.13;4951830;28;20042;-71
2021/12/31 07:58:31;;;;;;;2.40;1.90;;;11.10;84.80;;;9.37;100.00;96689.88;4931906;28;20054;-68
2021/12/31 08:00:57;;;;;;;2.03;1.35;;;11.10;84.60;;;9.36;100.00;96693.50;4963907;28;20043;-69
2021/12/31 08:03:23;;;;;;;1.52;1.23;;;11.10;84.80;;;9.35;100.00;96699.72;4938264;28;20035;-68
2021/12/31 08:05:58;;;;;;;1.73;1.60;;;11.10;84.40;;;9.35;100.00;96695.31;4950550;28;20045;-68
2021/12/31 08:08:24;;;;;;;2.30;1.77;;;11.10;84.40;;;9.38;100.00;96702.03;4936746;28;20085;-68
2021/12/31 08:10:50;;;;;;;3.25;2.00;;;11.10;84.70;;;9.39;100.00;96695.78;4963923;28;20171;-67
2021/12/31 08:13:16;;;;;;;4.20;3.08;;;11.10;84.90;;;9.39;100.00;96695.78;4964174;28;20078;-68
2021/12/31 08:15:41;;;;;;;3.72;2.35;;;11.10;84.80;;;9.42;100.00;96691.00;4944198;28;20121;-69
2021/12/31 08:18:07;;;;;;;3.75;2.70;;;11.20;84.80;;;9.47;100.00;96695.75;4945571;28;20364;-71
2021/12/31 08:20:35;;;;;;;2.97;1.83;;;11.30;84.70;;;9.52;100.00;96696.91;4939755;28;20039;-72
2021/12/31 08:23:09;;;;;;;2.63;1.77;;;11.40;84.30;;;9.62;100.00;96706.41;4927056;28;20426;-70
2021/12/31 08:25:36;;;;;;;3.25;1.80;;;11.60;84.10;;;9.68;100.00;96705.72;4948547;28;20047;-69
2021/12/31 08:28:02;;;;;;;2.20;1.45;;;11.70;83.70;;;9.74;100.00;96708.53;4942842;28;20054;-68
2021/12/31 08:30:28;;;;;;;2.95;1.95;;;11.70;83.60;;;9.80;100.00;96705.22;4934010;29;20110;-69
2021/12/31 08:32:54;;;;;;;2.60;1.73;;;11.80;83.30;;;9.87;100.00;96715.03;4960270;28;20129;-69
2021/12/31 08:35:20;;;;;;;1.85;1.45;;;11.70;83.20;;;9.92;100.00;96710.09;4952963;28;20118;-69
2021/12/31 08:37:46;;;;;;;2.75;1.25;;;11.90;83.20;;;10.00;100.00;96713.53;4925373;28;20028;-69
2021/12/31 08:40:12;;;;;;;1.55;1.10;;;12.00;82.90;;;10.08;100.00;96707.41;4932710;28;20046;-69
2021/12/31 08:42:40;;;;;;;2.00;1.20;;;12.10;82.50;;;10.14;100.00;96704.91;4950689;28;20067;-69
2021/12/31 08:45:09;;;;;;;2.38;1.15;;;12.10;82.30;;;10.23;100.00;96702.28;4952668;28;20513;-70
2021/12/31 08:47:35;;;;;;;0.93;0.80;;;12.20;82.10;;;10.27;100.00;96693.06;4938261;29;20055;-69
2021/12/31 08:50:01;;;;;;;1.52;1.05;;;12.20;81.90;;;10.31;100.00;96687.28;4938091;29;20035;-70
2021/12/31 08:52:27;;;;;;;2.85;1.60;;;12.30;81.80;;;10.38;100.00;96693.47;4953475;29;20055;-69
2021/12/31 08:54:52;;;;;;;4.47;3.00;;;12.50;81.50;;;10.50;100.00;96696.53;4952782;28;20065;-69
2021/12/31 08:57:18;;;;;;;2.67;1.90;;;12.70;81.00;;;10.60;99.56;96696.31;4953208;28;20122;-69
2021/12/31 08:59:44;;;;;;;1.95;1.33;;;12.80;80.50;;;10.68;99.62;96694.47;4961292;28;20043;-69
2021/12/31 09:02:11;;;;;;;2.53;1.35;;;12.90;80.00;;;10.77;99.20;96697.84;4956762;28;20035;-70
2021/12/31 09:04:37;;;;;;;5.35;2.08;;;13.00;79.50;;;10.86;98.22;96698.59;4951728;28;20047;-70
2021/12/31 09:07:06;;;;;;;2.65;1.80;;;13.10;78.80;;;10.97;98.31;96691.13;4936889;28;20364;-70
2021/12/31 09:09:32;;;;;;;4.65;2.47;;;13.40;78.40;;;11.07;97.13;96687.41;4952980;29;20039;-70
2021/12/31 09:11:57;;;;;;;3.28;2.20;;;13.50;77.90;;;11.15;96.76;96690.81;4949729;28;20067;-69
2021/12/31 09:14:24;;;;;;;2.80;1.75;;;13.40;77.50;;;11.21;96.57;96684.00;4946000;28;20042;-68
2021/12/31 09:16:52;;;;;;;2.22;1.48;;;13.60;77.30;;;11.31;95.98;96692.47;4971769;28;20027;-69
2021/12/31 09:19:18;;;;;;;2.65;1.60;;;13.70;76.70;;;11.40;96.05;96688.78;4952710;29;20098;-68
2021/12/31 09:21:44;;;;;;;2.85;1.90;;;13.90;75.90;;;11.51;95.04;96690.94;4949203;28;20074;-68
2021/12/31 09:24:10;;;;;;;3.25;1.73;;;14.00;75.80;;;11.63;95.12;96693.97;4957097;28;20027;-69
2021/12/31 09:26:36;;;;;;;3.88;1.83;;;14.20;74.80;;;11.74;94.47;96695.31;4966747;28;20039;-69
2021/12/31 09:29:02;;;;;;;3.30;1.92;;;14.30;74.90;;;11.87;94.49;96692.91;4937119;29;20042;-71
2021/12/31 09:31:28;;;;;;;1.88;1.15;;;14.60;74.60;;;12.02;94.34;96688.47;4952616;28;20032;-68
2021/12/31 09:33:57;;;;;;;1.92;1.10;;;14.90;73.50;;;12.19;92.90;96695.16;4938729;28;20035;-71
2021/12/31 09:36:23;;;;;;;1.10;0.93;;;15.10;71.70;;;12.34;92.67;96697.78;4971576;28;20038;-70
2021/12/31 09:38:49;;;;;;;1.55;1.00;;;15.20;71.50;;;12.50;92.44;96694.13;4959181;28;20054;-67
2021/12/31 09:41:15;;;;;;;1.10;0.77;;;15.40;71.80;;;12.68;91.83;96696.34;4954978;28;20031;-70
2021/12/31 09:43:43;;;;;;;1.40;1.17;;;15.70;70.40;;;12.85;91.62;96695.88;4970684;28;20047;-71
2021/12/31 09:46:15;;;;;;;1.40;0.88;;;16.00;69.70;;;12.99;89.17;96696.03;4937147;28;20061;-70
2021/12/31 09:48:41;;;;;;;1.75;1.10;;;16.10;68.80;;;13.15;90.35;96707.16;4938895;28;20116;-69
2021/12/31 09:51:07;;;;;;;1.45;1.00;;;16.20;68.20;;;13.31;89.34;96703.44;4938895;28;20502;-70
2021/12/31 09:53:33;;;;;;;1.20;0.90;;;16.50;67.50;;;13.47;88.16;96697.88;4938607;28;20035;-71
2021/12/31 09:55:58;;;;;;;1.20;1.00;;;16.70;66.40;;;13.61;87.60;96700.63;4951371;28;20666;-70
2021/12/31 09:58:25;;;;;;;2.60;1.10;;;17.00;65.00;;;13.77;86.72;96702.94;4933684;28;20035;-71
2021/12/31 10:00:57;;;;;;;2.20;1.60;;;17.50;63.90;;;13.95;84.94;96702.44;4968274;28;20042;-70
2021/12/31 10:03:25;;;;;;;3.22;1.90;;;17.90;62.10;;;14.10;85.65;96701.31;4934583;28;20030;-69
2021/12/31 10:06:01;;;;;;;1.70;1.00;;;18.60;60.70;;;14.26;83.17;96694.06;4938235;28;20043;-70
2021/12/31 10:08:42;;;;;;;2.17;1.23;;;18.60;60.10;;;14.41;82.86;96692.09;4946197;28;20042;-70
2021/12/31 10:11:21;;;;;;;1.75;1.20;;;19.40;56.70;;;14.55;81.66;96688.50;4959370;28;20100;-70
2021/12/31 10:13:58;;;;;;;1.70;1.20;;;20.20;54.10;;;14.68;80.92;96677.94;4951080;28;20035;-71
2021/12/31 10:16:30;;;;;;;3.17;1.42;;;21.10;51.30;;;14.85;81.38;96672.28;4961491;28;20051;-69
2021/12/31 10:19:09;;;;;;;4.95;1.30;;;22.30;47.90;;;15.06;79.08;96663.31;4950795;29;20031;-71